createdAt,value
2022-09-15T00:02:20.344Z,1.80
2022-09-15T00:04:47.478Z,2.10
2022-09-15T00:07:14.509Z,1.80
2022-09-15T00:09:41.490Z,2.00
2022-09-15T00:12:08.502Z,2.20
2022-09-15T00:14:35.505Z,2.70
2022-09-15T00:17:02.451Z,1.80
2022-09-15T00:19:29.595Z,1.90
2022-09-15T00:21:56.542Z,2.00
2022-09-15T00:24:23.517Z,1.60
2022-09-15T00:26:50.529Z,2.50
2022-09-15T00:29:17.670Z,2.20
2022-09-15T00:31:44.633Z,1.30
2022-09-15T00:34:12.697Z,1.30
2022-09-15T00:36:40.054Z,1.70
2022-09-15T00:39:07.192Z,1.70
2022-09-15T00:41:34.277Z,1.80
2022-09-15T00:44:04.315Z,1.90
2022-09-15T00:46:33.779Z,2.30
2022-09-15T00:49:08.039Z,1.50
2022-09-15T00:52:07.185Z,1.80
2022-09-15T00:54:44.579Z,2.20
2022-09-15T00:57:16.213Z,2.10
2022-09-15T00:59:43.402Z,2.30
2022-09-15T01:02:15.683Z,2.10
2022-09-15T01:04:43.057Z,1.40
2022-09-15T01:07:12.966Z,1.70
2022-09-15T01:09:45.703Z,1.70
2022-09-15T01:12:12.751Z,1.90
2022-09-15T01:14:39.732Z,2.10
2022-09-15T01:17:29.483Z,2.00
2022-09-15T01:20:38.739Z,1.50
2022-09-15T01:23:37.320Z,1.80
2022-09-15T01:26:19.729Z,2.20
2022-09-15T01:29:08.713Z,2.50
2022-09-15T01:32:00.253Z,2.00
2022-09-15T01:34:27.272Z,1.30
2022-09-15T01:36:55.985Z,1.60
2022-09-15T01:39:28.511Z,2.00
2022-09-15T01:42:00.258Z,1.90
2022-09-15T01:44:36.737Z,2.30
2022-09-15T01:47:06.641Z,1.90
2022-09-15T01:49:40.346Z,1.40
2022-09-15T01:52:07.642Z,1.60
2022-09-15T01:54:40.689Z,1.90
2022-09-15T01:57:07.610Z,2.40
2022-09-15T01:59:34.506Z,2.50
2022-09-15T02:02:07.197Z,1.60
2022-09-15T02:04:44.885Z,1.90
2022-09-15T02:07:38.622Z,2.40
2022-09-15T02:10:11.692Z,2.10
2022-09-15T02:12:53.508Z,2.30
2022-09-15T02:15:36.126Z,1.60
2022-09-15T02:18:04.291Z,2.40
2022-09-15T02:20:39.821Z,2.60
2022-09-15T02:23:10.292Z,3.50
2022-09-15T02:25:46.154Z,2.20
2022-09-15T02:28:13.782Z,2.50
2022-09-15T02:30:42.141Z,2.60
2022-09-15T02:33:12.252Z,2.90
2022-09-15T02:35:39.515Z,2.60
2022-09-15T02:38:07.626Z,3.30
2022-09-15T02:40:35.348Z,3.10
2022-09-15T02:43:05.566Z,3.50
2022-09-15T02:45:32.676Z,3.80
2022-09-15T02:47:59.983Z,2.80
2022-09-15T02:50:27.236Z,3.20
2022-09-15T02:52:57.574Z,3.60
2022-09-15T02:55:27.683Z,3.30
2022-09-15T02:57:56.238Z,3.20
2022-09-15T03:00:23.224Z,4.00
2022-09-15T03:02:51.818Z,3.20
2022-09-15T03:05:29.500Z,3.10
2022-09-15T03:07:56.667Z,3.50
2022-09-15T03:10:24.712Z,3.60
2022-09-15T03:12:53.224Z,3.60
2022-09-15T03:15:22.502Z,3.10
2022-09-15T03:17:49.852Z,2.80
2022-09-15T03:20:19.060Z,2.90
2022-09-15T03:22:46.095Z,3.00
2022-09-15T03:25:13.767Z,3.10
2022-09-15T03:27:41.006Z,3.30
2022-09-15T03:30:08.877Z,2.60
2022-09-15T03:32:36.273Z,2.70
2022-09-15T03:35:04.429Z,3.50
2022-09-15T03:37:31.511Z,3.20
2022-09-15T03:39:58.575Z,3.50
2022-09-15T03:42:25.958Z,3.10
2022-09-15T03:44:53.220Z,2.50
2022-09-15T03:47:20.187Z,2.70
2022-09-15T03:49:47.873Z,2.80
2022-09-15T03:52:14.965Z,3.50
2022-09-15T03:54:42.189Z,3.30
2022-09-15T03:57:09.191Z,2.10
2022-09-15T03:59:36.315Z,2.40
2022-09-15T04:02:03.615Z,2.40
2022-09-15T04:04:31.736Z,3.00
2022-09-15T04:06:58.888Z,2.90
2022-09-15T04:09:26.145Z,3.90
2022-09-15T04:11:53.290Z,2.90
2022-09-15T04:14:20.442Z,3.50
2022-09-15T04:16:47.653Z,3.20
2022-09-15T04:19:15.190Z,3.50
2022-09-15T04:21:42.606Z,3.90
2022-09-15T04:24:09.756Z,3.40
2022-09-15T04:26:37.055Z,2.80
2022-09-15T04:29:05.669Z,2.70
2022-09-15T04:31:33.403Z,3.40
2022-09-15T04:34:00.649Z,3.80
2022-09-15T04:36:28.641Z,3.70
2022-09-15T04:38:56.558Z,2.40
2022-09-15T04:41:24.104Z,3.30
2022-09-15T04:43:51.666Z,3.40
2022-09-15T04:46:18.967Z,3.70
2022-09-15T04:48:46.488Z,3.70
2022-09-15T04:51:15.572Z,4.10
2022-09-15T04:53:43.437Z,3.10
2022-09-15T04:56:15.799Z,3.60
2022-09-15T04:58:47.670Z,4.30
2022-09-15T05:01:20.022Z,4.30
2022-09-15T05:03:47.395Z,5.00
2022-09-15T05:06:16.680Z,4.10
2022-09-15T05:08:46.821Z,3.50
2022-09-15T05:11:14.272Z,4.30
2022-09-15T05:13:41.624Z,4.30
2022-09-15T05:16:12.253Z,4.90
2022-09-15T05:18:40.328Z,4.00
2022-09-15T05:21:08.008Z,3.90
2022-09-15T05:23:35.652Z,3.80
2022-09-15T05:26:05.332Z,4.30
2022-09-15T05:28:33.479Z,5.00
2022-09-15T05:31:00.606Z,4.00
2022-09-15T05:33:27.684Z,3.70
2022-09-15T05:35:57.213Z,4.30
2022-09-15T05:38:24.888Z,4.40
2022-09-15T05:40:52.058Z,4.70
2022-09-15T05:43:19.200Z,3.30
2022-09-15T05:45:54.745Z,3.50
2022-09-15T05:48:22.119Z,4.10
2022-09-15T05:50:50.378Z,4.20
2022-09-15T05:53:17.585Z,4.40
2022-09-15T05:55:44.678Z,2.30
2022-09-15T05:58:11.803Z,3.90
2022-09-15T06:00:39.088Z,3.90
2022-09-15T06:03:06.289Z,4.30
2022-09-15T06:05:33.256Z,5.00
2022-09-15T06:08:00.424Z,2.90
2022-09-15T06:10:27.631Z,3.70
2022-09-15T06:12:54.937Z,4.00
2022-09-15T06:15:23.002Z,4.30
2022-09-15T06:17:49.976Z,4.70
2022-09-15T06:20:17.725Z,4.20
2022-09-15T06:22:47.705Z,3.30
2022-09-15T06:25:15.324Z,3.30
2022-09-15T06:27:42.546Z,4.30
2022-09-15T06:30:10.405Z,4.50
2022-09-15T06:32:37.350Z,4.80
2022-09-15T06:35:07.364Z,4.90
2022-09-15T06:37:34.945Z,2.50
2022-09-15T06:40:02.449Z,3.30
2022-09-15T06:42:29.615Z,3.00
2022-09-15T06:44:57.193Z,2.90
2022-09-15T06:47:24.174Z,3.30
2022-09-15T06:49:53.355Z,2.60
2022-09-15T06:52:20.488Z,2.00
2022-09-15T06:54:47.742Z,2.80
2022-09-15T06:57:14.895Z,2.60
2022-09-15T06:59:42.858Z,2.50
2022-09-15T07:02:10.121Z,3.10
2022-09-15T07:04:37.268Z,1.30
2022-09-15T07:07:04.756Z,1.60
2022-09-15T07:09:32.072Z,1.80
2022-09-15T07:11:59.202Z,2.10
2022-09-15T07:14:26.283Z,2.00
2022-09-15T07:16:53.530Z,2.60
2022-09-15T07:19:20.526Z,1.50
2022-09-15T07:21:47.617Z,1.80
2022-09-15T07:24:14.815Z,2.10
2022-09-15T07:26:42.331Z,2.20
2022-09-15T07:29:09.988Z,2.20
2022-09-15T07:31:38.358Z,1.30
2022-09-15T07:34:05.935Z,1.70
2022-09-15T07:36:33.183Z,1.80
2022-09-15T07:39:00.335Z,2.20
2022-09-15T07:41:29.252Z,2.20
2022-09-15T07:43:57.930Z,1.70
2022-09-15T07:46:26.037Z,1.70
2022-09-15T07:48:56.594Z,1.70
2022-09-15T07:51:24.269Z,2.20
2022-09-15T07:53:51.700Z,2.80
2022-09-15T07:56:18.952Z,1.60
2022-09-15T07:58:49.421Z,2.10
2022-09-15T08:01:17.142Z,2.10
2022-09-15T08:03:46.505Z,2.30
2022-09-15T08:06:13.751Z,2.50
2022-09-15T08:08:41.280Z,1.70
2022-09-15T08:11:09.199Z,2.00
2022-09-15T08:13:36.508Z,2.10
2022-09-15T08:16:30.246Z,2.40
2022-09-15T08:18:57.536Z,2.60
2022-09-15T08:21:24.587Z,1.30
2022-09-15T08:23:56.334Z,1.80
2022-09-15T08:26:24.211Z,2.00
2022-09-15T08:28:51.304Z,2.40
2022-09-15T08:31:18.535Z,2.50
2022-09-15T08:33:50.163Z,2.40
2022-09-15T08:36:17.408Z,2.00
2022-09-15T08:38:45.089Z,1.40
2022-09-15T08:41:17.843Z,1.70
2022-09-15T08:44:09.988Z,1.90
2022-09-15T08:46:42.548Z,2.10
2022-09-15T08:49:30.775Z,2.40
2022-09-15T08:52:30.119Z,1.60
2022-09-15T08:54:58.618Z,1.40
2022-09-15T08:57:26.467Z,1.80
2022-09-15T08:59:54.920Z,2.00
2022-09-15T09:02:31.295Z,2.10
2022-09-15T09:05:19.917Z,2.30
2022-09-15T09:08:00.524Z,1.20
2022-09-15T09:10:39.766Z,1.40
2022-09-15T09:13:18.968Z,1.90
2022-09-15T09:16:01.340Z,2.00
2022-09-15T09:18:34.447Z,1.90
2022-09-15T09:21:26.933Z,1.90
2022-09-15T09:24:17.430Z,1.80
2022-09-15T09:26:46.423Z,1.70
2022-09-15T09:29:20.834Z,1.80
2022-09-15T09:31:49.362Z,2.20
2022-09-15T09:34:27.949Z,2.00
2022-09-15T09:36:59.190Z,2.30
2022-09-15T09:39:27.877Z,1.60
2022-09-15T09:41:55.438Z,1.80
2022-09-15T09:44:32.125Z,2.30
2022-09-15T09:47:00.079Z,2.40
2022-09-15T09:49:42.887Z,2.80
2022-09-15T09:52:09.877Z,1.90
2022-09-15T09:54:37.089Z,1.80
2022-09-15T09:57:13.342Z,2.60
2022-09-15T09:59:45.321Z,2.80
2022-09-15T10:02:12.421Z,3.00
2022-09-15T10:04:44.282Z,3.10
2022-09-15T10:07:11.916Z,2.10
2022-09-15T10:09:39.175Z,2.20
2022-09-15T10:12:06.501Z,2.30
2022-09-15T10:14:33.654Z,2.70
2022-09-15T10:17:17.279Z,2.80
2022-09-15T10:22:34.932Z,1.70
2022-09-15T10:25:18.568Z,2.30
2022-09-15T10:27:45.715Z,3.00
2022-09-15T10:30:12.815Z,2.70
2022-09-15T10:32:40.133Z,2.80
2022-09-15T10:35:11.573Z,3.10
2022-09-15T10:38:00.018Z,2.30
2022-09-15T10:40:48.790Z,2.80
2022-09-15T10:43:44.696Z,2.90
2022-09-15T10:46:24.336Z,2.80
2022-09-15T10:48:58.374Z,2.70
2022-09-15T10:52:00.632Z,1.80
2022-09-15T10:54:36.924Z,2.10
2022-09-15T10:57:12.024Z,2.30
2022-09-15T11:00:00.812Z,2.70
2022-09-15T11:02:54.038Z,3.60
2022-09-15T11:05:49.051Z,3.60
2022-09-15T11:08:19.267Z,2.60
2022-09-15T11:11:04.644Z,3.00
2022-09-15T11:13:44.697Z,3.80
2022-09-15T11:16:44.135Z,3.80
2022-09-15T11:25:29.917Z,2.60
2022-09-15T11:27:59.458Z,3.20
2022-09-15T11:30:33.400Z,3.70
2022-09-15T11:33:07.179Z,3.60
2022-09-15T11:35:37.304Z,3.40
2022-09-15T11:39:56.862Z,3.10
2022-09-15T12:07:39.914Z,2.70
2022-09-15T12:10:30.920Z,3.20
2022-09-15T12:12:59.426Z,3.40
2022-09-15T12:15:26.848Z,3.60
2022-09-15T12:18:37.091Z,4.00
2022-09-15T12:21:35.380Z,2.50
2022-09-15T12:24:17.800Z,3.00
2022-09-15T12:26:46.122Z,3.60
2022-09-15T12:29:25.422Z,3.30
2022-09-15T12:32:21.851Z,3.10
2022-09-15T12:34:59.245Z,3.20
2022-09-15T12:37:35.908Z,2.80
2022-09-15T12:40:06.235Z,3.40
2022-09-15T12:42:34.728Z,3.90
2022-09-15T12:45:20.719Z,3.40
2022-09-15T12:47:49.854Z,2.30
2022-09-15T12:50:16.660Z,2.70
2022-09-15T12:53:02.972Z,3.20
2022-09-15T12:55:34.026Z,3.20
2022-09-15T12:58:08.919Z,3.40
2022-09-15T13:01:06.847Z,3.40
2022-09-15T13:03:30.049Z,2.40
2022-09-15T13:06:24.150Z,2.50
2022-09-15T13:08:52.208Z,2.90
2022-09-15T13:11:28.809Z,2.70
2022-09-15T13:14:08.326Z,3.30
2022-09-15T13:16:41.512Z,3.40
2022-09-15T13:21:43.687Z,2.80
2022-09-15T13:24:24.254Z,2.20
2022-09-15T13:26:52.939Z,2.50
2022-09-15T13:29:19.993Z,3.00
2022-09-15T13:31:59.557Z,2.20
2022-09-15T13:35:09.063Z,2.60
2022-09-15T13:38:12.649Z,2.50
2022-09-15T13:40:38.721Z,2.30
2022-09-15T13:43:40.122Z,1.80
2022-09-15T13:46:27.639Z,2.40
2022-09-15T13:49:30.061Z,2.50
2022-09-15T13:52:15.992Z,2.40
2022-09-15T13:55:10.435Z,2.50
2022-09-15T14:00:27.016Z,1.80
2022-09-15T14:02:59.128Z,2.00
2022-09-15T14:05:28.709Z,2.20
2022-09-15T14:08:01.260Z,1.90
2022-09-15T14:10:31.896Z,2.00
2022-09-15T14:13:01.860Z,2.20
2022-09-15T14:15:29.071Z,2.40
2022-09-15T14:17:56.154Z,1.60
2022-09-15T14:20:31.501Z,1.80
2022-09-15T14:22:59.432Z,1.70
2022-09-15T14:25:27.741Z,1.70
2022-09-15T14:27:55.097Z,2.00
2022-09-15T14:30:23.301Z,1.60
2022-09-15T14:32:54.892Z,1.80
2022-09-15T14:35:27.000Z,1.70
2022-09-15T14:37:57.003Z,1.60
2022-09-15T14:40:34.352Z,1.80
2022-09-15T14:43:01.447Z,1.80
2022-09-15T14:46:01.443Z,2.00
2022-09-15T14:48:28.405Z,1.50
2022-09-15T14:51:02.186Z,1.60
2022-09-15T14:53:30.689Z,1.70
2022-09-15T14:56:08.269Z,1.80
2022-09-15T14:59:06.990Z,2.00
2022-09-15T15:02:07.104Z,1.80
2022-09-15T15:04:40.986Z,1.60
2022-09-15T15:07:26.597Z,2.00
2022-09-15T15:10:01.781Z,2.30
2022-09-15T15:12:35.575Z,2.20
2022-09-15T15:15:03.309Z,2.80
2022-09-15T15:17:36.421Z,2.10
2022-09-15T15:22:40.708Z,2.60
2022-09-15T15:25:41.983Z,2.70
2022-09-15T15:28:31.146Z,3.10
2022-09-15T15:31:13.783Z,2.50
2022-09-15T15:33:47.153Z,2.50
2022-09-15T15:38:50.058Z,3.70
2022-09-15T15:41:27.961Z,3.30
2022-09-15T15:44:08.347Z,3.60
2022-09-15T15:47:01.792Z,2.60
2022-09-15T15:49:32.463Z,3.20
2022-09-15T15:52:00.419Z,3.20
2022-09-15T15:54:27.620Z,3.30
2022-09-15T15:56:55.006Z,3.90
2022-09-15T15:59:22.042Z,3.80
2022-09-15T16:01:51.411Z,2.20
2022-09-15T16:04:18.692Z,2.80
2022-09-15T16:06:45.742Z,3.20
2022-09-15T16:09:13.933Z,3.60
2022-09-15T16:11:42.427Z,3.80
2022-09-15T16:14:12.426Z,3.20
2022-09-15T16:16:39.745Z,2.60
2022-09-15T16:19:08.755Z,3.20
2022-09-15T16:21:39.358Z,3.60
2022-09-15T16:24:07.174Z,3.50
2022-09-15T16:26:38.091Z,3.30
2022-09-15T16:29:05.382Z,2.20
2022-09-15T16:31:32.973Z,2.90
2022-09-15T16:34:00.156Z,3.20
2022-09-15T16:36:27.162Z,2.30
2022-09-15T16:38:54.294Z,3.10
2022-09-15T16:41:28.378Z,1.70
2022-09-15T16:43:58.303Z,1.90
2022-09-15T16:46:25.478Z,1.60
2022-09-15T16:48:52.453Z,1.60
2022-09-15T16:51:27.949Z,1.40
2022-09-15T16:53:57.732Z,1.20
2022-09-15T16:56:24.892Z,1.30
2022-09-15T16:58:58.940Z,1.40
2022-09-15T17:01:27.167Z,1.30
2022-09-15T17:03:54.317Z,1.30
2022-09-15T17:06:22.443Z,1.60
2022-09-15T17:08:49.752Z,0.90
2022-09-15T17:11:20.964Z,0.80
2022-09-15T17:13:48.141Z,0.80
2022-09-15T17:16:16.660Z,1.10
2022-09-15T17:18:43.691Z,1.00
2022-09-15T17:21:11.952Z,1.20
2022-09-15T17:23:44.681Z,0.80
2022-09-15T17:26:20.282Z,0.80
2022-09-15T17:28:47.633Z,1.00
2022-09-15T17:31:18.714Z,0.90
2022-09-15T17:33:45.925Z,0.90
2022-09-15T17:36:13.183Z,0.80
2022-09-15T17:38:45.011Z,0.70
2022-09-15T17:41:17.426Z,0.90
2022-09-15T17:43:44.693Z,0.90
2022-09-15T17:46:12.098Z,1.00
2022-09-15T17:48:39.394Z,0.80
2022-09-15T17:51:07.439Z,0.80
2022-09-15T17:53:34.530Z,0.60
2022-09-15T17:56:01.950Z,0.70
2022-09-15T17:58:31.571Z,0.70
2022-09-15T18:00:58.733Z,1.00
2022-09-15T18:03:35.291Z,0.70
2022-09-15T18:06:05.348Z,1.00
2022-09-15T18:08:38.890Z,0.60
2022-09-15T18:11:06.674Z,0.80
2022-09-15T18:13:34.296Z,0.70
2022-09-15T18:16:06.767Z,0.80
2022-09-15T18:18:34.459Z,0.90
2022-09-15T18:21:01.503Z,0.90
2022-09-15T18:23:29.791Z,0.60
2022-09-15T18:25:57.647Z,0.70
2022-09-15T18:28:24.905Z,0.90
2022-09-15T18:30:52.018Z,1.00
2022-09-15T18:33:24.107Z,1.00
2022-09-15T18:35:53.036Z,1.00
2022-09-15T18:38:20.162Z,0.80
2022-09-15T18:40:49.225Z,0.90
2022-09-15T18:43:17.309Z,1.20
2022-09-15T18:45:44.468Z,1.00
2022-09-15T18:48:13.105Z,1.00
2022-09-15T18:50:41.419Z,1.10
2022-09-15T18:53:08.485Z,1.00
2022-09-15T18:55:35.567Z,1.20
2022-09-15T18:58:02.845Z,1.00
2022-09-15T19:00:29.851Z,1.00
2022-09-15T19:03:00.975Z,0.90
2022-09-15T19:05:28.944Z,1.00
2022-09-15T19:07:56.243Z,1.00
2022-09-15T19:10:26.759Z,1.00
2022-09-15T19:12:54.502Z,1.00
2022-09-15T19:15:24.497Z,1.10
2022-09-15T19:17:51.579Z,0.80
2022-09-15T19:20:18.497Z,0.80
2022-09-15T19:22:46.384Z,1.00
2022-09-15T19:25:13.725Z,1.00
2022-09-15T19:27:41.444Z,1.00
2022-09-15T19:30:10.274Z,1.10
2022-09-15T19:32:38.538Z,0.70
2022-09-15T19:35:06.858Z,0.80
2022-09-15T19:37:37.128Z,1.00
2022-09-15T19:40:08.345Z,1.00
2022-09-15T19:42:36.561Z,1.00
2022-09-15T19:45:03.923Z,1.20
2022-09-15T19:47:30.961Z,0.70
2022-09-15T19:49:58.229Z,0.90
2022-09-15T19:52:25.468Z,1.10
2022-09-15T19:54:52.620Z,1.20
2022-09-15T19:57:20.070Z,0.90
2022-09-15T19:59:47.197Z,1.10
2022-09-15T20:02:14.377Z,0.90
2022-09-15T20:04:41.832Z,0.80
2022-09-15T20:07:08.989Z,0.90
2022-09-15T20:09:36.335Z,1.00
2022-09-15T20:12:03.868Z,1.00
2022-09-15T20:14:31.568Z,1.10
2022-09-15T20:17:01.183Z,1.10
2022-09-15T20:19:29.783Z,0.50
2022-09-15T20:21:56.956Z,0.80
2022-09-15T20:24:24.354Z,1.00
2022-09-15T20:26:51.928Z,1.10
2022-09-15T20:29:19.676Z,0.90
2022-09-15T20:31:46.861Z,1.20
2022-09-15T20:34:13.887Z,1.20
2022-09-15T20:36:41.032Z,0.80
2022-09-15T20:39:10.715Z,0.70
2022-09-15T20:41:38.087Z,1.20
2022-09-15T20:44:09.304Z,0.90
2022-09-15T20:46:36.589Z,1.10
2022-09-15T20:49:04.661Z,1.10
2022-09-15T20:51:32.731Z,1.10
2022-09-15T20:54:01.009Z,0.70
2022-09-15T20:56:28.853Z,1.10
2022-09-15T20:58:57.366Z,1.40
2022-09-15T21:01:36.437Z,1.10
2022-09-15T21:04:04.082Z,1.40
2022-09-15T21:06:31.804Z,1.50
2022-09-15T21:08:58.772Z,0.60
2022-09-15T21:11:26.708Z,0.80
2022-09-15T21:13:54.676Z,1.10
2022-09-15T21:16:26.250Z,1.00
2022-09-15T21:18:53.646Z,1.50
2022-09-15T21:21:25.302Z,1.60
2022-09-15T21:23:54.339Z,1.60
2022-09-15T21:26:26.265Z,0.80
2022-09-15T21:28:54.499Z,1.20
2022-09-15T21:31:26.425Z,1.40
2022-09-15T21:33:54.120Z,1.70
2022-09-15T21:36:23.420Z,1.80
2022-09-15T21:38:51.685Z,1.70
2022-09-15T21:41:21.591Z,2.10
2022-09-15T21:43:49.271Z,1.00
2022-09-15T21:46:18.415Z,1.30
2022-09-15T21:48:47.401Z,1.30
2022-09-15T21:51:17.992Z,1.30
2022-09-15T21:56:18.187Z,2.00
2022-09-15T21:58:45.091Z,1.70
2022-09-15T22:01:19.089Z,0.80
2022-09-15T22:03:51.631Z,1.20
2022-09-15T22:06:19.842Z,1.20
2022-09-15T22:08:46.964Z,1.50
2022-09-15T22:11:14.325Z,1.30
2022-09-15T22:13:43.331Z,1.30
2022-09-15T22:16:15.560Z,1.70
2022-09-15T22:18:42.706Z,0.80
2022-09-15T22:21:13.740Z,1.10
2022-09-15T22:23:40.922Z,1.10
2022-09-15T22:26:10.531Z,1.30
2022-09-15T22:28:37.999Z,1.80
2022-09-15T22:31:06.805Z,2.00
2022-09-15T22:33:34.366Z,2.10
2022-09-15T22:36:02.001Z,1.40
2022-09-15T22:38:30.002Z,1.40
2022-09-15T22:41:02.871Z,1.30
2022-09-15T22:43:30.210Z,1.40
2022-09-15T22:45:57.312Z,1.80
2022-09-15T22:48:24.508Z,1.90
2022-09-15T22:50:51.458Z,1.10
2022-09-15T22:53:18.377Z,1.30
2022-09-15T22:55:45.448Z,1.70
2022-09-15T22:58:12.315Z,1.50
2022-09-15T23:00:39.486Z,1.80
2022-09-15T23:03:06.840Z,1.80
2022-09-15T23:05:34.687Z,1.10
2022-09-15T23:08:01.913Z,1.30
2022-09-15T23:10:30.521Z,1.50
2022-09-15T23:13:00.930Z,1.60
2022-09-15T23:15:29.096Z,1.60
2022-09-15T23:17:56.065Z,1.50
2022-09-15T23:20:23.192Z,1.70
2022-09-15T23:22:50.269Z,0.80
2022-09-15T23:25:17.409Z,1.30
2022-09-15T23:27:44.443Z,1.30
2022-09-15T23:30:12.551Z,1.40
2022-09-15T23:32:39.559Z,1.70
2022-09-15T23:35:07.454Z,1.80
2022-09-15T23:37:34.469Z,2.10
2022-09-15T23:40:01.742Z,1.30
2022-09-15T23:42:28.836Z,1.30
2022-09-15T23:44:56.021Z,1.50
2022-09-15T23:47:22.998Z,1.70
2022-09-15T23:49:50.322Z,1.80
2022-09-15T23:52:17.308Z,1.70
2022-09-15T23:54:44.135Z,2.00
2022-09-15T23:57:11.982Z,1.20
2022-09-15T23:59:38.947Z,1.30
